createdAt,value
2022-11-26T00:00:51.761Z,28.52
2022-11-26T00:03:19.228Z,32.47
2022-11-26T00:05:49.540Z,32.75
2022-11-26T00:08:21.451Z,27.92
2022-11-26T00:10:51.035Z,37.35
2022-11-26T00:13:21.463Z,32.40
2022-11-26T00:15:49.069Z,29.15
2022-11-26T00:18:32.298Z,27.52
2022-11-26T00:21:01.087Z,35.17
2022-11-26T00:23:28.817Z,31.95
2022-11-26T00:26:01.829Z,29.60
2022-11-26T00:28:37.694Z,28.02
2022-11-26T00:31:07.533Z,44.33
2022-11-26T00:33:34.371Z,32.45
2022-11-26T00:36:18.873Z,33.25
2022-11-26T00:38:54.023Z,42.13
2022-11-26T00:41:23.873Z,37.35
2022-11-26T00:43:50.960Z,30.95
2022-11-26T00:46:20.669Z,30.20
2022-11-26T00:48:47.895Z,35.72
2022-11-26T00:51:27.213Z,38.85
2022-11-26T00:53:55.806Z,41.70
2022-11-26T00:56:23.434Z,40.15
2022-11-26T00:58:51.154Z,33.63
2022-11-26T01:01:20.917Z,42.65
2022-11-26T01:10:43.760Z,41.92
2022-11-26T01:13:11.293Z,33.28
2022-11-26T01:15:38.216Z,40.42
2022-11-26T01:18:17.406Z,39.90
2022-11-26T01:20:44.816Z,40.15
2022-11-26T01:23:13.477Z,33.45
2022-11-26T01:25:41.694Z,35.70
2022-11-26T01:28:18.008Z,35.85
2022-11-26T01:30:45.294Z,32.55
2022-11-26T01:33:12.042Z,32.28
2022-11-26T01:35:38.958Z,35.80
2022-11-26T01:38:05.755Z,34.92
2022-11-26T01:40:38.928Z,30.35
2022-11-26T01:43:13.860Z,34.17
2022-11-26T01:45:40.783Z,40.00
2022-11-26T01:48:31.795Z,38.83
2022-11-26T01:51:10.369Z,41.42
2022-11-26T01:53:49.171Z,36.00
2022-11-26T01:56:38.160Z,61.28
2022-11-26T01:59:24.746Z,36.60
2022-11-26T02:01:57.457Z,46.03
2022-11-26T02:04:30.022Z,48.08
2022-11-26T02:09:26.108Z,31.42
2022-11-26T02:11:52.908Z,47.08
2022-11-26T02:14:32.559Z,72.72
2022-11-26T02:17:40.502Z,80.60
2022-11-26T02:20:26.063Z,55.33
2022-11-26T02:23:14.445Z,68.55
2022-11-26T02:26:02.419Z,57.97
2022-11-26T02:28:56.866Z,44.17
2022-11-26T02:31:36.641Z,47.50
2022-11-26T02:34:06.203Z,56.20
2022-11-26T02:36:38.602Z,95.30
2022-11-26T02:39:12.503Z,60.55
2022-11-26T02:41:51.654Z,64.45
2022-11-26T02:44:23.086Z,59.95
2022-11-26T02:46:55.179Z,46.97
2022-11-26T02:49:22.871Z,81.70
2022-11-26T02:51:54.024Z,54.60
2022-11-26T02:54:22.425Z,65.88
2022-11-26T02:56:50.526Z,66.95
2022-11-26T02:59:17.791Z,67.28
2022-11-26T03:01:52.282Z,91.93
2022-11-26T03:04:27.011Z,78.55
2022-11-26T03:06:57.427Z,64.93
2022-11-26T03:09:24.335Z,48.25
2022-11-26T03:11:51.127Z,60.83
2022-11-26T03:14:17.873Z,44.05
2022-11-26T03:16:44.731Z,88.15
2022-11-26T03:19:11.603Z,87.75
2022-11-26T03:21:38.344Z,91.07
2022-11-26T03:24:05.446Z,72.57
2022-11-26T03:26:32.251Z,72.72
2022-11-26T03:28:58.996Z,88.07
2022-11-26T03:31:25.796Z,63.78
2022-11-26T03:33:52.556Z,62.47
2022-11-26T03:36:19.299Z,71.90
2022-11-26T03:38:46.060Z,63.78
2022-11-26T03:41:12.856Z,99.18
2022-11-26T03:43:39.586Z,109.82
2022-11-26T03:46:06.474Z,98.30
2022-11-26T03:48:33.241Z,72.93
2022-11-26T03:50:59.983Z,100.32
2022-11-26T03:53:26.735Z,72.28
2022-11-26T03:55:53.495Z,109.70
2022-11-26T03:58:20.228Z,68.40
2022-11-26T04:00:47.015Z,83.90
2022-11-26T04:03:13.898Z,64.13
2022-11-26T04:05:40.777Z,69.28
2022-11-26T04:08:07.719Z,65.90
2022-11-26T04:10:34.486Z,81.85
2022-11-26T04:13:01.239Z,109.32
2022-11-26T04:15:28.016Z,79.88
2022-11-26T04:17:54.785Z,86.38
2022-11-26T04:20:21.699Z,75.93
2022-11-26T04:22:48.437Z,80.40
2022-11-26T04:25:15.206Z,69.65
2022-11-26T04:27:41.971Z,95.20
2022-11-26T04:30:09.636Z,58.40
2022-11-26T04:32:39.812Z,51.08
2022-11-26T04:35:08.162Z,124.90
2022-11-26T04:37:35.550Z,50.38
2022-11-26T04:40:21.162Z,57.20
2022-11-26T04:42:47.864Z,104.47
2022-11-26T04:45:14.767Z,50.75
2022-11-26T04:47:43.087Z,62.33
2022-11-26T04:50:10.724Z,77.47
2022-11-26T04:52:37.461Z,34.50
2022-11-26T04:55:04.758Z,49.38
2022-11-26T04:57:31.630Z,70.07
2022-11-26T04:59:58.393Z,53.45
2022-11-26T05:02:25.247Z,51.17
2022-11-26T05:04:52.186Z,83.10
2022-11-26T05:07:18.981Z,37.15
2022-11-26T05:09:45.828Z,57.45
2022-11-26T05:12:12.901Z,96.75
2022-11-26T05:14:40.071Z,81.97
2022-11-26T05:17:07.105Z,124.70
2022-11-26T05:19:34.273Z,34.38
2022-11-26T05:22:01.061Z,102.72
2022-11-26T05:24:27.844Z,45.53
2022-11-26T05:26:57.208Z,58.60
2022-11-26T05:29:24.549Z,111.25
2022-11-26T05:31:51.423Z,67.72
2022-11-26T05:34:18.717Z,47.03
2022-11-26T05:36:45.425Z,55.47
2022-11-26T05:39:12.165Z,50.45
2022-11-26T05:41:38.910Z,66.72
2022-11-26T05:44:05.835Z,45.45
2022-11-26T05:46:32.674Z,71.15
2022-11-26T05:48:59.523Z,46.08
2022-11-26T05:51:26.253Z,44.85
2022-11-26T05:53:53.098Z,48.95
2022-11-26T05:56:19.876Z,73.30
2022-11-26T05:58:46.638Z,72.05
2022-11-26T06:01:13.770Z,66.55
2022-11-26T06:03:40.659Z,54.15
2022-11-26T06:06:07.954Z,86.07
2022-11-26T06:08:35.286Z,92.05
2022-11-26T06:11:02.072Z,58.88
2022-11-26T06:13:28.779Z,48.05
2022-11-26T06:15:55.637Z,59.15
2022-11-26T06:18:22.372Z,44.45
2022-11-26T06:20:49.124Z,42.72
2022-11-26T06:23:15.987Z,139.43
2022-11-26T06:25:42.803Z,73.97
2022-11-26T06:28:09.529Z,60.00
2022-11-26T06:30:36.335Z,54.75
2022-11-26T06:33:03.146Z,41.22
2022-11-26T06:35:29.898Z,52.97
2022-11-26T06:37:56.688Z,47.97
2022-11-26T06:40:23.467Z,57.00
2022-11-26T06:42:51.579Z,61.05
2022-11-26T06:45:19.431Z,37.03
2022-11-26T06:47:49.815Z,41.50
2022-11-26T06:50:22.802Z,38.15
2022-11-26T06:52:53.655Z,58.72
2022-11-26T06:55:21.259Z,49.83
2022-11-26T06:57:52.201Z,40.65
2022-11-26T07:00:19.475Z,44.53
2022-11-26T07:02:46.402Z,45.45
2022-11-26T07:05:13.188Z,44.85
2022-11-26T07:07:40.644Z,41.08
2022-11-26T07:10:08.309Z,49.63
2022-11-26T07:12:45.313Z,54.17
2022-11-26T07:15:12.443Z,44.33
2022-11-26T07:17:39.175Z,41.88
2022-11-26T07:20:06.717Z,42.38
2022-11-26T07:22:35.396Z,41.88
2022-11-26T07:25:02.136Z,42.53
2022-11-26T07:27:28.854Z,42.00
2022-11-26T07:29:55.600Z,47.38
2022-11-26T07:32:22.381Z,40.70
2022-11-26T07:34:49.142Z,46.45
2022-11-26T07:37:16.794Z,32.88
2022-11-26T07:39:43.580Z,46.50
2022-11-26T07:42:10.302Z,39.22
2022-11-26T07:44:37.573Z,41.97
2022-11-26T07:47:04.476Z,37.15
2022-11-26T07:49:31.326Z,47.92
2022-11-26T07:51:58.127Z,35.08
2022-11-26T07:54:24.840Z,59.22
2022-11-26T07:57:09.651Z,70.68
2022-11-26T07:59:51.712Z,44.58
2022-11-26T08:02:27.740Z,43.22
2022-11-26T08:04:54.552Z,45.80
2022-11-26T08:07:26.117Z,36.38
2022-11-26T08:09:55.650Z,43.05
2022-11-26T08:12:22.500Z,51.03
2022-11-26T08:14:49.261Z,43.13
2022-11-26T08:17:16.003Z,50.45
2022-11-26T08:19:42.807Z,37.97
2022-11-26T08:22:19.841Z,69.68
2022-11-26T08:24:46.608Z,30.23
2022-11-26T08:27:32.715Z,49.90
2022-11-26T08:29:59.485Z,51.35
2022-11-26T08:32:41.829Z,54.15
2022-11-26T08:35:08.726Z,35.60
2022-11-26T08:37:35.526Z,46.80
2022-11-26T08:40:02.324Z,46.55
2022-11-26T08:42:29.156Z,39.78
2022-11-26T08:44:55.959Z,29.88
2022-11-26T08:47:22.714Z,29.52
2022-11-26T08:49:49.717Z,27.98
2022-11-26T08:52:16.568Z,31.88
2022-11-26T08:54:57.564Z,30.55
2022-11-26T08:57:24.350Z,44.90
2022-11-26T08:59:51.984Z,37.40
2022-11-26T09:02:19.151Z,38.83
2022-11-26T09:04:46.215Z,45.47
2022-11-26T09:07:13.085Z,45.45
2022-11-26T09:09:39.868Z,30.98
2022-11-26T09:12:07.128Z,31.88
2022-11-26T09:14:41.054Z,43.33
2022-11-26T09:17:09.960Z,33.08
2022-11-26T09:19:37.362Z,41.47
2022-11-26T09:22:04.416Z,30.23
2022-11-26T09:24:34.225Z,36.05
2022-11-26T09:27:07.331Z,28.38
2022-11-26T09:29:34.794Z,28.13
2022-11-26T09:32:22.602Z,28.15
2022-11-26T09:34:48.546Z,39.70
2022-11-26T09:37:17.511Z,26.40
2022-11-26T09:39:44.601Z,30.55
2022-11-26T09:42:28.257Z,28.48
2022-11-26T09:45:00.990Z,34.70
2022-11-26T09:47:55.781Z,32.50
2022-11-26T09:50:35.473Z,33.00
2022-11-26T09:53:22.407Z,35.28
2022-11-26T09:55:55.668Z,27.65
2022-11-26T09:58:48.397Z,33.67
2022-11-26T10:01:20.908Z,33.85
2022-11-26T10:03:48.033Z,37.10
2022-11-26T10:06:48.333Z,40.05
2022-11-26T10:09:24.280Z,37.40
2022-11-26T10:12:04.935Z,34.50
2022-11-26T10:14:53.527Z,39.17
2022-11-26T10:17:28.395Z,34.40
2022-11-26T10:20:07.071Z,29.17
2022-11-26T10:22:54.110Z,28.80
2022-11-26T10:25:28.534Z,52.97
2022-11-26T10:27:59.295Z,22.27
2022-11-26T10:30:30.824Z,33.58
2022-11-26T10:33:02.247Z,28.52
2022-11-26T10:35:30.161Z,28.00
2022-11-26T10:38:10.407Z,35.58
2022-11-26T10:40:37.359Z,24.85
2022-11-26T10:43:17.635Z,32.95
2022-11-26T10:45:50.571Z,27.80
2022-11-26T10:48:22.148Z,31.27
2022-11-26T10:51:11.055Z,29.50
2022-11-26T10:54:00.473Z,36.75
2022-11-26T10:56:45.933Z,35.92
2022-11-26T10:59:28.669Z,27.45
2022-11-26T11:04:31.958Z,33.83
2022-11-26T11:06:59.025Z,44.08
2022-11-26T11:09:29.060Z,35.85
2022-11-26T11:12:10.797Z,36.63
2022-11-26T11:14:43.120Z,35.50
2022-11-26T11:17:24.360Z,42.03
2022-11-26T11:19:51.488Z,53.05
2022-11-26T11:22:20.631Z,52.42
2022-11-26T11:24:48.017Z,36.72
2022-11-26T11:27:39.412Z,41.53
2022-11-26T11:30:06.935Z,39.38
2022-11-26T11:32:39.900Z,58.70
2022-11-26T11:35:33.021Z,54.53
2022-11-26T11:37:59.912Z,44.97
2022-11-26T11:40:40.318Z,50.30
2022-11-26T11:43:07.853Z,54.17
2022-11-26T11:45:44.082Z,50.05
2022-11-26T11:48:36.266Z,49.80
2022-11-26T11:51:20.983Z,48.22
2022-11-26T11:54:03.306Z,47.55
2022-11-26T11:56:45.502Z,48.22
2022-11-26T12:00:09.277Z,51.28
2022-11-26T12:02:48.205Z,48.22
2022-11-26T12:05:33.970Z,66.40
2022-11-26T12:08:22.161Z,51.58
2022-11-26T12:11:16.761Z,62.15
2022-11-26T12:13:50.571Z,45.58
2022-11-26T12:16:20.278Z,52.40
2022-11-26T12:19:03.381Z,50.83
2022-11-26T12:21:45.976Z,55.25
2022-11-26T12:24:22.197Z,61.30
2022-11-26T12:26:55.489Z,48.85
2022-11-26T12:29:35.331Z,60.03
2022-11-26T12:32:15.589Z,55.65
2022-11-26T12:34:51.436Z,50.90
2022-11-26T12:37:22.979Z,67.28
2022-11-26T12:40:24.994Z,68.72
2022-11-26T12:43:01.642Z,54.75
2022-11-26T12:46:00.438Z,60.75
2022-11-26T12:49:04.135Z,58.00
2022-11-26T12:52:05.196Z,54.03
2022-11-26T12:55:00.781Z,63.67
2022-11-26T12:57:39.828Z,59.58
2022-11-26T13:00:26.134Z,59.45
2022-11-26T13:02:54.298Z,48.47
2022-11-26T13:05:41.364Z,63.63
2022-11-26T13:08:17.089Z,69.93
2022-11-26T13:11:08.883Z,58.92
2022-11-26T13:13:55.718Z,49.70
2022-11-26T13:16:47.516Z,49.25
2022-11-26T13:19:41.960Z,47.92
2022-11-26T13:22:23.903Z,54.85
2022-11-26T13:24:50.617Z,49.27
2022-11-26T13:27:26.161Z,56.08
2022-11-26T13:30:05.488Z,47.20
2022-11-26T13:32:49.306Z,51.83
2022-11-26T13:35:34.465Z,51.90
2022-11-26T13:38:07.156Z,53.33
2022-11-26T13:40:59.230Z,51.80
2022-11-26T13:43:53.540Z,57.20
2022-11-26T13:46:34.412Z,58.10
2022-11-26T13:49:14.019Z,53.97
2022-11-26T13:51:51.136Z,56.45
2022-11-26T13:54:29.743Z,49.47
2022-11-26T13:57:11.733Z,52.63
2022-11-26T13:59:46.877Z,47.30
2022-11-26T14:02:41.921Z,53.42
2022-11-26T14:05:14.556Z,53.20
2022-11-26T14:10:34.954Z,48.58
2022-11-26T14:13:04.743Z,55.05
2022-11-26T14:15:40.719Z,48.58
2022-11-26T14:18:16.038Z,48.63
2022-11-26T14:21:12.311Z,53.10
2022-11-26T14:23:45.644Z,58.47
2022-11-26T14:26:37.733Z,53.70
2022-11-26T14:29:07.517Z,60.87
2022-11-26T14:31:35.773Z,55.72
2022-11-26T14:34:42.372Z,51.35
2022-11-26T14:37:24.102Z,44.53
2022-11-26T14:40:21.525Z,59.08
2022-11-26T14:42:48.335Z,59.78
2022-11-26T14:45:16.488Z,52.72
2022-11-26T14:47:49.733Z,50.25
2022-11-26T14:50:19.795Z,44.22
2022-11-26T14:52:50.303Z,52.72
2022-11-26T14:55:34.380Z,52.10
2022-11-26T14:58:09.325Z,46.78
2022-11-26T15:00:38.311Z,56.53
2022-11-26T15:03:22.875Z,49.22
2022-11-26T15:05:49.647Z,51.78
2022-11-26T15:08:19.327Z,48.53
2022-11-26T15:10:51.989Z,45.13
2022-11-26T15:13:37.179Z,53.05
2022-11-26T15:16:25.296Z,47.30
2022-11-26T15:18:54.088Z,45.75
2022-11-26T15:21:24.159Z,51.58
2022-11-26T15:23:52.512Z,39.92
2022-11-26T15:26:24.781Z,30.63
2022-11-26T15:28:51.702Z,27.15
2022-11-26T15:31:42.332Z,124.53
2022-11-26T15:34:12.865Z,122.85
2022-11-26T15:36:39.684Z,53.33
2022-11-26T15:39:22.992Z,17.77
2022-11-26T15:42:06.083Z,19.65
2022-11-26T15:44:42.419Z,13.98
2022-11-26T15:47:19.026Z,22.30
2022-11-26T15:49:49.573Z,23.35
2022-11-26T15:52:20.136Z,25.05
2022-11-26T15:55:15.099Z,34.10
2022-11-26T15:57:43.016Z,57.17
2022-11-26T16:00:31.541Z,73.32
2022-11-26T16:02:58.869Z,118.03
2022-11-26T16:05:36.308Z,136.27
2022-11-26T16:08:05.964Z,74.07
2022-11-26T16:10:36.749Z,58.40
2022-11-26T16:13:08.937Z,95.35
2022-11-26T16:15:36.867Z,63.78
2022-11-26T16:18:12.351Z,55.55
2022-11-26T16:20:39.055Z,47.63
2022-11-26T16:23:21.433Z,98.97
2022-11-26T16:26:07.809Z,109.85
2022-11-26T16:28:34.668Z,84.07
2022-11-26T16:31:01.625Z,56.58
2022-11-26T16:33:29.433Z,59.20
2022-11-26T16:35:56.260Z,60.95
2022-11-26T16:38:25.365Z,57.13
2022-11-26T16:40:52.860Z,61.85
2022-11-26T16:43:26.655Z,58.15
2022-11-26T16:45:55.022Z,50.40
2022-11-26T16:48:27.344Z,63.03
2022-11-26T16:50:55.619Z,53.80
2022-11-26T16:53:22.554Z,66.25
2022-11-26T16:55:50.127Z,69.43
2022-11-26T16:58:27.306Z,51.47
2022-11-26T17:00:55.615Z,48.42
2022-11-26T17:03:23.392Z,80.70
2022-11-26T17:05:55.424Z,83.85
2022-11-26T17:08:22.661Z,102.45
2022-11-26T17:10:50.979Z,93.18
2022-11-26T17:13:17.813Z,117.60
2022-11-26T17:15:45.007Z,97.97
2022-11-26T17:18:23.348Z,153.88
2022-11-26T17:20:51.435Z,200.63
2022-11-26T17:23:18.408Z,133.30
2022-11-26T17:25:46.738Z,75.80
2022-11-26T17:28:14.986Z,122.57
2022-11-26T17:30:43.289Z,84.88
2022-11-26T17:33:11.020Z,92.10
2022-11-26T17:35:38.248Z,131.80
2022-11-26T17:38:14.164Z,96.90
2022-11-26T17:40:41.465Z,54.75
2022-11-26T17:43:08.224Z,42.63
2022-11-26T17:45:35.025Z,100.00
2022-11-26T17:48:01.788Z,99.22
2022-11-26T17:50:29.838Z,94.97
2022-11-26T17:52:56.827Z,71.70
2022-11-26T17:55:25.444Z,58.70
2022-11-26T17:57:53.103Z,68.13
2022-11-26T18:00:24.162Z,49.30
2022-11-26T18:02:51.529Z,66.63
2022-11-26T18:05:18.417Z,101.75
2022-11-26T18:07:45.192Z,56.47
2022-11-26T18:10:15.216Z,110.40
2022-11-26T18:12:42.655Z,92.85
2022-11-26T18:15:16.280Z,72.82
2022-11-26T18:17:48.284Z,98.95
2022-11-26T18:20:18.216Z,71.32
2022-11-26T18:22:49.442Z,110.65
2022-11-26T18:25:16.197Z,60.63
2022-11-26T18:27:42.951Z,56.20
2022-11-26T18:30:11.183Z,49.58
2022-11-26T18:32:40.177Z,35.15
2022-11-26T18:35:07.284Z,41.00
2022-11-26T18:37:35.345Z,57.38
2022-11-26T18:40:02.497Z,45.08
2022-11-26T18:42:37.100Z,28.58
2022-11-26T18:45:06.685Z,31.95
2022-11-26T18:47:33.572Z,30.75
2022-11-26T18:50:00.359Z,27.85
2022-11-26T18:52:27.087Z,28.83
2022-11-26T18:54:53.812Z,37.28
2022-11-26T18:57:20.685Z,34.95
2022-11-26T18:59:47.565Z,29.65
2022-11-26T19:02:14.394Z,30.58
2022-11-26T19:04:41.352Z,30.60
2022-11-26T19:07:09.926Z,32.08
2022-11-26T19:09:40.208Z,27.73
2022-11-26T19:12:07.304Z,30.75
2022-11-26T19:14:34.044Z,30.08
2022-11-26T19:17:01.942Z,30.98
2022-11-26T19:19:28.758Z,30.13
2022-11-26T19:22:00.939Z,23.73
2022-11-26T19:24:29.012Z,30.70
2022-11-26T19:26:55.909Z,26.48
2022-11-26T19:29:22.778Z,34.10
2022-11-26T19:31:49.770Z,25.05
2022-11-26T19:34:16.670Z,28.70
2022-11-26T19:36:48.037Z,27.63
2022-11-26T19:39:15.960Z,23.60
2022-11-26T19:41:42.860Z,25.65
2022-11-26T19:44:09.663Z,28.33
2022-11-26T19:46:40.743Z,25.73
2022-11-26T19:49:10.879Z,27.58
2022-11-26T19:51:37.635Z,28.83
2022-11-26T19:54:04.939Z,22.55
2022-11-26T19:56:32.221Z,28.52
2022-11-26T19:59:01.935Z,28.75
2022-11-26T20:01:31.108Z,31.42
2022-11-26T20:04:00.100Z,22.85
2022-11-26T20:06:28.602Z,26.75
2022-11-26T20:08:58.011Z,26.55
2022-11-26T20:11:27.275Z,27.95
2022-11-26T20:13:54.787Z,29.13
2022-11-26T20:16:26.992Z,28.08
2022-11-26T20:18:54.741Z,36.95
2022-11-26T20:21:25.538Z,24.52
2022-11-26T20:23:53.709Z,29.90
2022-11-26T20:26:26.815Z,32.53
2022-11-26T20:28:54.033Z,27.60
2022-11-26T20:31:23.872Z,25.17
2022-11-26T20:33:53.010Z,24.75
2022-11-26T20:36:22.712Z,28.75
2022-11-26T20:38:58.021Z,25.25
2022-11-26T20:41:28.302Z,24.50
2022-11-26T20:43:59.453Z,27.90
2022-11-26T20:46:28.117Z,23.58
2022-11-26T20:48:55.511Z,29.40
2022-11-26T20:51:24.007Z,26.40
2022-11-26T20:53:52.277Z,21.10
2022-11-26T20:56:21.123Z,28.88
2022-11-26T20:58:48.475Z,30.60
2022-11-26T21:01:28.514Z,24.30
2022-11-26T21:03:59.291Z,28.27
2022-11-26T21:06:31.507Z,26.75
2022-11-26T21:09:03.519Z,28.75
2022-11-26T21:11:31.430Z,22.90
2022-11-26T21:14:00.032Z,26.88
2022-11-26T21:16:27.857Z,21.17
2022-11-26T21:18:55.414Z,22.38
2022-11-26T21:21:23.324Z,28.30
2022-11-26T21:23:50.786Z,20.90
2022-11-26T21:26:19.874Z,19.50
2022-11-26T21:28:54.537Z,30.83
2022-11-26T21:31:21.983Z,27.42
2022-11-26T21:34:01.529Z,24.77
2022-11-26T21:36:30.415Z,23.92
2022-11-26T21:38:57.293Z,22.33
2022-11-26T21:41:24.997Z,22.80
2022-11-26T21:43:52.280Z,22.60
2022-11-26T21:46:24.750Z,33.05
2022-11-26T21:51:20.261Z,21.65
2022-11-26T21:53:49.573Z,16.27
2022-11-26T21:56:19.579Z,20.15
2022-11-26T21:58:47.437Z,18.67
2022-11-26T22:01:17.124Z,20.55
2022-11-26T22:03:46.173Z,19.50
2022-11-26T22:06:13.813Z,20.83
2022-11-26T22:08:40.893Z,20.63
2022-11-26T22:11:13.215Z,31.10
2022-11-26T22:13:40.839Z,27.10
2022-11-26T22:16:09.361Z,38.00
2022-11-26T22:18:40.616Z,35.95
2022-11-26T22:21:19.403Z,30.83
2022-11-26T22:23:47.006Z,24.08
2022-11-26T22:26:14.100Z,24.13
2022-11-26T22:28:41.235Z,26.80
2022-11-26T22:31:32.558Z,20.38
2022-11-26T22:34:01.851Z,20.58
2022-11-26T22:36:29.020Z,29.38
2022-11-26T22:38:56.377Z,19.40
2022-11-26T22:41:23.313Z,21.63
2022-11-26T22:43:50.365Z,21.02
2022-11-26T22:46:22.658Z,17.70
2022-11-26T22:49:01.129Z,15.52
2022-11-26T22:51:30.337Z,23.20
2022-11-26T22:53:59.922Z,23.75
2022-11-26T22:56:27.675Z,21.98
2022-11-26T22:58:54.731Z,19.60
2022-11-26T23:01:29.031Z,23.95
2022-11-26T23:03:56.975Z,19.05
2022-11-26T23:06:25.865Z,16.98
2022-11-26T23:08:53.443Z,21.45
2022-11-26T23:11:29.478Z,20.17
2022-11-26T23:13:57.258Z,19.77
2022-11-26T23:16:25.848Z,20.88
2022-11-26T23:18:57.309Z,20.30
2022-11-26T23:21:26.812Z,18.73
2022-11-26T23:23:54.396Z,15.10
2022-11-26T23:26:27.519Z,16.08
2022-11-26T23:28:56.031Z,19.45
2022-11-26T23:31:28.628Z,16.73
2022-11-26T23:36:24.585Z,25.35
2022-11-26T23:38:51.653Z,21.73
2022-11-26T23:41:18.595Z,18.23
2022-11-26T23:43:45.589Z,19.27
2022-11-26T23:46:21.550Z,19.63
2022-11-26T23:48:49.618Z,25.85
2022-11-26T23:51:23.041Z,21.20
2022-11-26T23:53:50.979Z,21.40
2022-11-26T23:56:26.499Z,25.15
2022-11-26T23:58:57.031Z,21.27
